createdAt,value
2023-02-03T00:01:04.280Z,1.92
2023-02-03T00:03:31.115Z,2.37
2023-02-03T00:08:24.649Z,1.75
2023-02-03T00:13:18.387Z,1.98
2023-02-03T00:18:12.153Z,1.80
2023-02-03T00:20:39.050Z,2.20
2023-02-03T00:23:10.712Z,2.10
2023-02-03T00:25:39.606Z,1.80
2023-02-03T00:28:06.991Z,2.15
2023-02-03T00:30:37.148Z,1.80
2023-02-03T00:33:04.562Z,1.62
2023-02-03T00:35:31.568Z,1.90
2023-02-03T00:37:58.744Z,2.10
2023-02-03T00:40:27.342Z,2.20
2023-02-03T00:42:55.132Z,2.30
2023-02-03T00:45:22.011Z,2.20
2023-02-03T00:47:48.851Z,2.15
2023-02-03T00:52:42.657Z,2.03
2023-02-03T00:55:09.827Z,2.08
2023-02-03T00:57:36.697Z,2.30
2023-02-03T01:02:30.630Z,2.87
2023-02-03T01:04:57.521Z,2.00
2023-02-03T01:09:51.119Z,1.92
2023-02-03T01:12:17.973Z,2.10
2023-02-03T01:17:11.496Z,2.05
2023-02-03T01:22:05.080Z,2.60
2023-02-03T01:24:31.996Z,2.03
2023-02-03T01:29:25.605Z,2.37
2023-02-03T01:31:52.649Z,2.00
2023-02-03T01:34:19.648Z,2.10
2023-02-03T01:39:14.458Z,2.10
2023-02-03T01:41:41.850Z,1.92
2023-02-03T01:44:33.603Z,2.42
2023-02-03T01:47:00.606Z,2.10
2023-02-03T01:49:34.984Z,2.08
2023-02-03T01:52:02.137Z,2.30
2023-02-03T01:54:32.796Z,2.78
2023-02-03T01:57:03.842Z,2.10
2023-02-03T01:59:32.011Z,2.20
2023-02-03T02:01:59.384Z,2.40
2023-02-03T02:04:30.329Z,2.78
2023-02-03T02:06:58.277Z,2.60
2023-02-03T02:09:26.942Z,2.42
2023-02-03T02:11:53.804Z,2.33
2023-02-03T02:16:58.625Z,2.28
2023-02-03T02:20:03.182Z,2.03
2023-02-03T02:22:51.674Z,2.45
2023-02-03T02:25:45.935Z,2.50
2023-02-03T02:28:27.223Z,2.70
2023-02-03T02:31:19.022Z,2.30
2023-02-03T02:33:55.123Z,2.33
2023-02-03T02:36:25.629Z,2.47
2023-02-03T02:39:12.989Z,2.50
2023-02-03T02:41:52.287Z,2.75
2023-02-03T02:44:33.523Z,2.55
2023-02-03T02:47:09.848Z,2.78
2023-02-03T02:49:58.906Z,2.83
2023-02-03T02:52:26.331Z,2.33
2023-02-03T02:54:55.117Z,2.53
2023-02-03T02:57:24.495Z,3.03
2023-02-03T02:59:51.385Z,2.67
2023-02-03T03:04:47.246Z,2.60
2023-02-03T03:07:17.862Z,2.90
2023-02-03T03:09:47.765Z,2.62
2023-02-03T03:12:22.177Z,2.83
2023-02-03T03:14:53.796Z,2.83
2023-02-03T03:17:30.577Z,2.83
2023-02-03T03:20:01.025Z,2.78
2023-02-03T03:22:32.575Z,2.78
2023-02-03T03:25:05.825Z,2.75
2023-02-03T03:27:39.066Z,2.90
2023-02-03T03:30:10.976Z,2.87
2023-02-03T03:32:38.392Z,3.30
2023-02-03T03:35:06.083Z,3.45
2023-02-03T03:37:49.674Z,2.85
2023-02-03T03:40:26.168Z,3.55
2023-02-03T03:43:01.625Z,3.42
2023-02-03T03:45:42.573Z,3.00
2023-02-03T03:48:34.333Z,3.00
2023-02-03T03:51:05.462Z,3.00
2023-02-03T03:53:34.320Z,2.85
2023-02-03T03:56:02.022Z,3.37
2023-02-03T03:58:31.917Z,3.30
2023-02-03T04:01:02.335Z,2.83
2023-02-03T04:03:33.826Z,2.95
2023-02-03T04:06:00.706Z,2.85
2023-02-03T04:10:54.206Z,2.85
2023-02-03T04:15:47.907Z,2.62
2023-02-03T04:18:15.956Z,3.05
2023-02-03T04:20:43.403Z,3.00
2023-02-03T04:23:10.835Z,3.10
2023-02-03T04:25:37.747Z,2.90
2023-02-03T04:28:06.235Z,3.08
2023-02-03T04:30:33.245Z,2.97
2023-02-03T04:33:00.242Z,3.50
2023-02-03T04:35:27.170Z,3.75
2023-02-03T04:37:54.054Z,3.35
2023-02-03T04:42:47.710Z,2.70
2023-02-03T04:45:14.577Z,2.92
2023-02-03T04:50:08.725Z,3.30
2023-02-03T04:52:35.646Z,2.95
2023-02-03T04:55:04.203Z,3.97
2023-02-03T04:57:31.255Z,3.58
2023-02-03T04:59:58.189Z,3.35
2023-02-03T05:02:25.036Z,3.22
2023-02-03T05:04:52.103Z,3.53
2023-02-03T05:09:45.631Z,2.65
2023-02-03T05:14:39.206Z,3.12
2023-02-03T05:17:06.101Z,3.05
2023-02-03T05:21:59.693Z,2.85
2023-02-03T05:24:26.553Z,3.67
2023-02-03T05:29:20.128Z,3.65
2023-02-03T05:34:13.682Z,3.10
2023-02-03T05:39:07.326Z,3.87
2023-02-03T05:41:52.553Z,3.33
2023-02-03T05:44:22.429Z,3.62
2023-02-03T05:46:49.821Z,3.62
2023-02-03T05:49:16.987Z,5.18
2023-02-03T05:51:44.048Z,5.65
2023-02-03T05:54:10.979Z,4.47
2023-02-03T05:56:38.117Z,4.03
2023-02-03T05:59:05.727Z,3.67
2023-02-03T06:01:33.751Z,3.65
2023-02-03T06:04:01.540Z,3.90
2023-02-03T06:06:33.938Z,3.60
2023-02-03T06:09:01.912Z,4.07
2023-02-03T06:11:28.915Z,4.20
2023-02-03T06:13:58.723Z,4.00
2023-02-03T06:16:27.031Z,3.75
2023-02-03T06:18:55.159Z,4.05
2023-02-03T06:21:22.630Z,4.30
2023-02-03T06:23:49.551Z,4.43
2023-02-03T06:26:16.413Z,4.68
2023-02-03T06:31:10.158Z,4.70
2023-02-03T06:33:37.131Z,4.20
2023-02-03T06:38:30.833Z,3.85
2023-02-03T06:43:24.354Z,3.70
2023-02-03T06:48:18.166Z,3.65
2023-02-03T06:53:15.418Z,3.60
2023-02-03T06:55:42.454Z,4.12
2023-02-03T06:58:09.365Z,4.43
2023-02-03T07:00:36.365Z,4.22
2023-02-03T07:03:03.509Z,4.55
2023-02-03T07:05:30.768Z,4.30
2023-02-03T07:07:57.700Z,4.72
2023-02-03T07:10:24.639Z,4.93
2023-02-03T07:12:51.999Z,4.55
2023-02-03T07:15:19.232Z,4.70
2023-02-03T07:17:54.733Z,4.90
2023-02-03T07:20:22.811Z,4.30
2023-02-03T07:22:57.337Z,4.47
2023-02-03T07:25:24.804Z,4.55
2023-02-03T07:27:51.725Z,4.70
2023-02-03T07:30:18.914Z,4.57
2023-02-03T07:32:50.323Z,4.07
2023-02-03T07:35:17.756Z,4.22
2023-02-03T07:37:44.884Z,4.55
2023-02-03T07:40:13.018Z,4.12
2023-02-03T07:42:44.243Z,4.15
2023-02-03T07:45:12.160Z,3.85
2023-02-03T07:47:39.260Z,3.70
2023-02-03T07:50:06.457Z,3.10
2023-02-03T07:52:33.337Z,3.35
2023-02-03T07:57:27.600Z,3.47
2023-02-03T07:59:54.549Z,3.70
2023-02-03T08:02:21.434Z,3.00
2023-02-03T08:07:15.072Z,3.10
2023-02-03T08:12:08.655Z,2.83
2023-02-03T08:14:35.502Z,3.47
2023-02-03T08:19:29.351Z,2.90
2023-02-03T08:21:56.947Z,3.10
2023-02-03T08:24:23.901Z,3.80
2023-02-03T08:26:50.777Z,3.72
2023-02-03T08:31:44.735Z,4.20
2023-02-03T08:34:11.663Z,4.20
2023-02-03T08:39:07.712Z,3.03
2023-02-03T08:41:34.636Z,3.47
2023-02-03T08:44:01.939Z,3.75
2023-02-03T08:46:28.909Z,3.55
2023-02-03T08:48:56.691Z,3.50
2023-02-03T08:51:24.681Z,2.97
2023-02-03T08:53:51.971Z,2.90
2023-02-03T08:56:18.925Z,3.30
2023-02-03T08:58:45.853Z,3.60
2023-02-03T09:01:14.701Z,3.03
2023-02-03T09:03:41.657Z,3.30
2023-02-03T09:06:11.875Z,3.20
2023-02-03T09:08:39.461Z,2.65
2023-02-03T09:11:13.907Z,2.50
2023-02-03T09:13:41.134Z,2.20
2023-02-03T09:16:08.575Z,2.60
2023-02-03T09:18:35.703Z,2.60
2023-02-03T09:21:04.205Z,2.50
2023-02-03T09:23:31.207Z,2.35
2023-02-03T09:28:34.794Z,2.75
2023-02-03T09:31:04.868Z,3.28
2023-02-03T09:33:31.899Z,3.35
2023-02-03T09:35:59.286Z,4.00
2023-02-03T09:38:27.222Z,4.60
2023-02-03T09:41:16.038Z,4.93
2023-02-03T09:43:57.404Z,4.62
2023-02-03T09:46:30.110Z,5.07
2023-02-03T09:49:17.572Z,3.53
2023-02-03T09:51:54.361Z,4.03
2023-02-03T09:54:36.213Z,3.35
2023-02-03T09:57:05.980Z,3.20
2023-02-03T09:59:35.056Z,3.15
2023-02-03T10:02:23.716Z,2.72
2023-02-03T10:05:12.571Z,3.10
2023-02-03T10:08:26.056Z,2.72
2023-02-03T10:11:10.472Z,2.97
2023-02-03T10:13:40.239Z,3.00
2023-02-03T10:16:16.848Z,2.90
2023-02-03T10:18:51.095Z,2.53
2023-02-03T10:21:39.118Z,2.60
2023-02-03T10:27:17.658Z,2.40
2023-02-03T10:29:44.993Z,2.30
2023-02-03T10:32:13.060Z,2.60
2023-02-03T10:34:40.397Z,2.30
2023-02-03T10:37:32.213Z,2.70
2023-02-03T10:40:03.341Z,3.42
2023-02-03T10:42:50.814Z,3.10
2023-02-03T10:45:17.928Z,3.22
2023-02-03T10:47:48.947Z,3.33
2023-02-03T10:50:21.936Z,2.97
2023-02-03T10:52:49.030Z,3.90
2023-02-03T10:55:23.018Z,4.45
2023-02-03T10:57:50.229Z,3.75
2023-02-03T11:00:22.427Z,3.67
2023-02-03T11:02:58.128Z,4.03
2023-02-03T11:05:26.588Z,3.90
2023-02-03T11:07:54.216Z,3.87
2023-02-03T11:10:31.020Z,3.80
2023-02-03T11:16:06.428Z,3.58
2023-02-03T11:18:53.513Z,4.03
2023-02-03T11:24:34.065Z,4.07
2023-02-03T11:27:07.154Z,4.22
2023-02-03T11:29:36.333Z,4.65
2023-02-03T11:32:16.482Z,4.35
2023-02-03T11:34:55.656Z,3.87
2023-02-03T11:37:32.629Z,3.50
2023-02-03T11:40:08.578Z,3.70
2023-02-03T11:42:37.696Z,3.80
2023-02-03T11:45:26.684Z,3.33
2023-02-03T11:48:02.274Z,3.80
2023-02-03T11:50:38.803Z,3.55
2023-02-03T11:53:27.087Z,3.90
2023-02-03T11:56:14.676Z,4.10
2023-02-03T11:59:03.005Z,3.28
2023-02-03T12:02:10.599Z,3.47
2023-02-03T12:04:49.337Z,4.32
2023-02-03T12:07:31.099Z,4.20
2023-02-03T12:10:36.337Z,4.43
2023-02-03T12:13:30.428Z,4.03
2023-02-03T12:16:13.072Z,4.28
2023-02-03T12:18:42.954Z,4.40
2023-02-03T12:21:43.652Z,4.45
2023-02-03T12:27:10.866Z,5.15
2023-02-03T12:29:44.151Z,4.60
2023-02-03T12:32:17.547Z,4.97
2023-02-03T12:35:27.168Z,5.32
2023-02-03T12:37:58.898Z,5.10
2023-02-03T12:40:49.661Z,4.90
2023-02-03T12:43:49.373Z,5.22
2023-02-03T12:46:22.771Z,5.30
2023-02-03T12:49:12.982Z,5.45
2023-02-03T12:51:56.130Z,5.20
2023-02-03T12:54:32.840Z,5.28
2023-02-03T12:57:18.883Z,5.35
2023-02-03T12:59:57.743Z,4.95
2023-02-03T13:02:31.321Z,4.80
2023-02-03T13:05:05.226Z,4.70
2023-02-03T13:07:48.311Z,4.80
2023-02-03T13:10:21.921Z,4.50
2023-02-03T13:12:55.265Z,4.78
2023-02-03T13:15:28.658Z,5.25
2023-02-03T13:18:22.059Z,5.15
2023-02-03T13:20:48.997Z,4.85
2023-02-03T13:23:16.074Z,5.40
2023-02-03T13:26:13.250Z,4.80
2023-02-03T13:28:53.450Z,5.18
2023-02-03T13:31:38.946Z,5.15
2023-02-03T13:34:20.296Z,4.93
2023-02-03T13:37:18.295Z,5.72
2023-02-03T13:40:14.109Z,5.30
2023-02-03T13:42:47.541Z,5.00
2023-02-03T13:45:29.567Z,4.87
2023-02-03T13:48:06.292Z,5.10
2023-02-03T13:50:33.373Z,5.57
2023-02-03T13:53:19.858Z,5.10
2023-02-03T13:55:57.403Z,4.65
2023-02-03T13:58:32.993Z,4.70
2023-02-03T14:01:23.822Z,5.05
2023-02-03T14:03:50.808Z,5.20
2023-02-03T14:06:49.943Z,5.03
2023-02-03T14:09:34.296Z,5.43
2023-02-03T14:12:29.844Z,5.07
2023-02-03T14:15:04.336Z,5.20
2023-02-03T14:17:43.238Z,4.87
2023-02-03T14:20:25.394Z,5.53
2023-02-03T14:22:59.101Z,5.90
2023-02-03T14:25:27.329Z,5.32
2023-02-03T14:28:06.256Z,5.57
2023-02-03T14:30:33.419Z,5.53
2023-02-03T14:33:03.078Z,5.37
2023-02-03T14:35:30.202Z,5.45
2023-02-03T14:38:11.497Z,6.25
2023-02-03T14:41:00.517Z,5.85
2023-02-03T14:43:40.355Z,6.03
2023-02-03T14:46:13.407Z,5.93
2023-02-03T14:49:05.579Z,6.00
2023-02-03T14:52:09.864Z,6.05
2023-02-03T14:55:15.157Z,7.12
2023-02-03T14:57:49.258Z,6.80
2023-02-03T15:00:19.360Z,5.93
2023-02-03T15:03:12.123Z,6.78
2023-02-03T15:06:01.311Z,6.95
2023-02-03T15:08:36.743Z,6.22
2023-02-03T15:11:28.652Z,6.57
2023-02-03T15:13:57.515Z,6.40
2023-02-03T15:16:25.524Z,7.22
2023-02-03T15:19:00.813Z,7.12
2023-02-03T15:21:27.737Z,7.32
2023-02-03T15:23:55.951Z,6.65
2023-02-03T15:26:25.504Z,6.90
2023-02-03T15:29:00.917Z,6.78
2023-02-03T15:31:46.728Z,7.43
2023-02-03T15:34:30.821Z,7.37
2023-02-03T15:37:02.912Z,7.00
2023-02-03T15:39:46.127Z,7.22
2023-02-03T15:42:21.402Z,6.90
2023-02-03T15:44:58.945Z,9.23
2023-02-03T15:47:36.125Z,10.25
2023-02-03T15:50:08.348Z,9.70
2023-02-03T15:52:37.906Z,8.50
2023-02-03T15:55:32.108Z,9.27
2023-02-03T15:57:59.268Z,6.40
2023-02-03T16:00:32.665Z,5.97
2023-02-03T16:03:00.542Z,5.53
2023-02-03T16:05:33.553Z,2.40
2023-02-03T16:08:31.081Z,2.33
2023-02-03T16:10:57.985Z,2.15
2023-02-03T16:13:27.380Z,2.67
2023-02-03T16:16:14.479Z,3.72
2023-02-03T16:18:41.862Z,2.67
2023-02-03T16:21:25.430Z,3.60
2023-02-03T16:23:52.349Z,2.85
2023-02-03T16:26:21.100Z,4.97
2023-02-03T16:29:16.381Z,3.50
2023-02-03T16:32:03.949Z,3.17
2023-02-03T16:34:49.667Z,3.78
2023-02-03T16:37:53.639Z,4.00
2023-02-03T16:40:41.190Z,3.70
2023-02-03T16:43:31.782Z,4.05
2023-02-03T16:46:18.405Z,4.47
2023-02-03T16:49:03.890Z,6.47
2023-02-03T16:51:41.440Z,4.35
2023-02-03T16:54:18.332Z,4.22
2023-02-03T16:56:45.271Z,4.30
2023-02-03T16:59:12.145Z,4.40
2023-02-03T17:01:39.449Z,4.40
2023-02-03T17:04:06.466Z,4.90
2023-02-03T17:06:33.633Z,4.75
2023-02-03T17:09:00.482Z,5.35
2023-02-03T17:11:27.420Z,5.37
2023-02-03T17:13:54.293Z,4.47
2023-02-03T17:16:23.297Z,3.60
2023-02-03T17:18:50.473Z,3.70
2023-02-03T17:21:20.152Z,3.25
2023-02-03T17:23:47.081Z,3.00
2023-02-03T17:26:14.025Z,3.03
2023-02-03T17:28:43.309Z,4.43
2023-02-03T17:31:16.285Z,4.75
2023-02-03T17:33:43.493Z,3.67
2023-02-03T17:36:13.247Z,3.80
2023-02-03T17:55:10.081Z,3.35
2023-02-03T17:57:40.176Z,3.78
2023-02-03T18:00:07.505Z,4.47
2023-02-03T18:02:34.390Z,6.15
2023-02-03T18:05:01.269Z,5.07
2023-02-03T18:07:28.116Z,5.85
2023-02-03T18:09:55.045Z,4.97
2023-02-03T18:12:21.917Z,4.45
2023-02-03T18:14:49.454Z,4.57
2023-02-03T18:17:16.293Z,3.97
2023-02-03T18:22:16.127Z,3.25
2023-02-03T18:24:45.073Z,1.90
2023-02-03T18:27:16.953Z,2.00
2023-02-03T18:29:45.428Z,1.65
2023-02-03T18:32:13.427Z,1.90
2023-02-03T18:34:40.306Z,1.85
2023-02-03T18:37:07.459Z,1.87
2023-02-03T18:39:34.400Z,1.92
2023-02-03T18:42:01.289Z,2.10
2023-02-03T18:44:28.291Z,2.50
2023-02-03T18:46:55.261Z,2.50
2023-02-03T18:49:22.824Z,2.70
2023-02-03T18:51:49.762Z,2.67
2023-02-03T18:54:16.622Z,3.20
2023-02-03T18:56:43.524Z,2.60
2023-02-03T18:59:11.397Z,2.87
2023-02-03T19:01:39.214Z,3.50
2023-02-03T19:04:06.872Z,3.70
2023-02-03T19:06:34.534Z,3.20
2023-02-03T19:09:01.726Z,3.20
2023-02-03T19:11:28.627Z,1.95
2023-02-03T19:13:55.715Z,1.60
2023-02-03T19:16:22.691Z,2.10
2023-02-03T19:18:49.557Z,2.42
2023-02-03T19:21:17.638Z,2.58
2023-02-03T19:23:44.917Z,3.10
2023-02-03T19:26:12.263Z,2.78
2023-02-03T19:28:40.215Z,2.42
2023-02-03T19:31:09.489Z,1.55
2023-02-03T19:33:37.326Z,1.80
2023-02-03T19:36:05.699Z,1.62
2023-02-03T19:38:32.636Z,1.60
2023-02-03T19:41:01.766Z,1.67
2023-02-03T19:43:31.950Z,1.90
2023-02-03T19:45:59.358Z,1.83
2023-02-03T19:48:26.296Z,2.22
2023-02-03T19:50:53.213Z,1.85
2023-02-03T19:53:21.481Z,2.10
2023-02-03T19:55:48.470Z,2.15
2023-02-03T19:58:15.331Z,2.08
2023-02-03T20:00:43.198Z,1.90
2023-02-03T20:03:10.532Z,1.70
2023-02-03T20:05:37.507Z,2.22
2023-02-03T20:08:05.161Z,2.53
2023-02-03T20:10:33.027Z,1.30
2023-02-03T20:13:00.459Z,0.80
2023-02-03T20:15:27.628Z,0.90
2023-02-03T20:17:54.563Z,0.55
2023-02-03T20:20:21.642Z,0.65
2023-02-03T20:22:49.302Z,0.70
2023-02-03T20:25:16.555Z,0.80
2023-02-03T20:27:43.503Z,0.80
2023-02-03T20:30:11.314Z,0.88
2023-02-03T20:32:38.522Z,0.70
2023-02-03T20:35:06.415Z,1.02
2023-02-03T20:37:33.501Z,1.00
2023-02-03T20:40:00.384Z,1.05
2023-02-03T20:42:27.246Z,1.00
2023-02-03T20:44:54.397Z,1.17
2023-02-03T20:47:22.771Z,1.30
2023-02-03T20:49:49.928Z,1.17
2023-02-03T20:52:18.717Z,1.85
2023-02-03T20:54:46.341Z,1.10
2023-02-03T20:57:18.784Z,1.42
2023-02-03T20:59:46.303Z,1.75
2023-02-03T21:02:31.002Z,1.50
2023-02-03T21:04:57.927Z,1.33
2023-02-03T21:07:30.937Z,1.80
2023-02-03T21:10:18.338Z,1.48
2023-02-03T21:12:45.173Z,1.60
2023-02-03T21:17:46.108Z,1.40
2023-02-03T21:20:32.376Z,1.65
2023-02-03T21:22:59.467Z,1.77
2023-02-03T21:25:28.854Z,2.35
2023-02-03T21:27:58.306Z,1.42
2023-02-03T21:30:34.959Z,1.58
2023-02-03T21:33:29.555Z,1.60
2023-02-03T21:35:56.543Z,1.30
2023-02-03T21:38:28.556Z,1.45
2023-02-03T21:40:55.481Z,1.20
2023-02-03T21:43:24.194Z,1.67
2023-02-03T21:45:51.649Z,1.20
2023-02-03T21:48:32.962Z,1.30
2023-02-03T21:51:04.974Z,1.42
2023-02-03T21:53:36.082Z,1.00
2023-02-03T21:56:27.082Z,0.88
2023-02-03T21:58:58.998Z,1.10
2023-02-03T22:01:26.784Z,1.40
2023-02-03T22:03:55.474Z,1.10
2023-02-03T22:06:24.106Z,1.10
2023-02-03T22:08:53.495Z,1.73
2023-02-03T22:11:21.819Z,1.02
2023-02-03T22:13:48.951Z,1.10
2023-02-03T22:16:17.407Z,1.35
2023-02-03T22:18:48.245Z,1.33
2023-02-03T22:21:15.710Z,1.30
2023-02-03T22:23:42.907Z,1.37
2023-02-03T22:26:10.697Z,1.67
2023-02-03T22:28:38.119Z,1.17
2023-02-03T22:31:05.809Z,1.20
2023-02-03T22:33:32.687Z,1.12
2023-02-03T22:35:59.689Z,1.27
2023-02-03T22:38:26.680Z,1.52
2023-02-03T22:40:53.674Z,1.25
2023-02-03T22:43:20.907Z,1.08
2023-02-03T22:45:47.839Z,1.23
2023-02-03T22:48:14.713Z,1.33
2023-02-03T22:50:41.865Z,1.42
2023-02-03T22:53:09.534Z,1.40
2023-02-03T22:55:37.996Z,1.30
2023-02-03T22:58:06.013Z,1.83
2023-02-03T23:00:33.774Z,1.17
2023-02-03T23:03:01.148Z,1.25
2023-02-03T23:05:28.065Z,0.90
2023-02-03T23:07:55.026Z,1.33
2023-02-03T23:10:25.063Z,1.42
2023-02-03T23:12:52.347Z,1.12
2023-02-03T23:15:19.579Z,1.27
2023-02-03T23:17:46.528Z,1.58
2023-02-03T23:20:14.944Z,1.20
2023-02-03T23:22:42.609Z,1.27
2023-02-03T23:25:09.909Z,1.35
2023-02-03T23:27:37.016Z,1.33
2023-02-03T23:30:04.865Z,1.48
2023-02-03T23:32:33.880Z,1.48
2023-02-03T23:35:20.604Z,1.45
2023-02-03T23:37:47.604Z,1.48
2023-02-03T23:40:14.973Z,1.35
2023-02-03T23:42:42.065Z,1.50
2023-02-03T23:45:12.314Z,1.65
2023-02-03T23:47:43.438Z,1.30
2023-02-03T23:50:12.956Z,1.45
2023-02-03T23:52:39.826Z,1.62
2023-02-03T23:55:12.270Z,1.35
2023-02-03T23:57:39.374Z,2.10
